Time;durP1;ratioP1;P1;durP2;ratioP2;P2;SDS_P1;SDS_P2;PMS_P1;PMS_P2;Temp;Humidity;BMP_temperature;BMP_pressure;BME280_temperature;BME280_humidity;BME280_pressure;Samples;Min_cycle;Max_cycle;Signal;HPM_P1;HPM_P2
2022/07/25 00:00:28;;;;;;;;;;;;;;;30.51;27.01;99287.31;4411620;32;34940;-93
2022/07/25 00:02:56;;;;;;;;;;;;;;;29.52;28.51;99283.94;4436430;32;33166;-91
2022/07/25 00:05:24;;;;;;;;;;;;;;;30.63;26.98;99290.97;4409446;32;32634;-90
2022/07/25 00:07:51;;;;;;;;;;;;;;;30.68;26.72;99277.25;4425735;32;34412;-90
2022/07/25 00:10:19;;;;;;;;;;;;;;;30.65;26.76;99281.03;4420579;32;35073;-90
2022/07/25 00:12:46;;;;;;;;;;;;;;;30.84;26.57;99282.44;4420503;32;33474;-92
2022/07/25 00:15:13;;;;;;;;;;;;;;;31.20;26.13;99271.00;4420432;32;33965;-90
2022/07/25 00:17:41;;;;;;;;;;;;;;;30.52;26.95;99280.97;4414287;32;33868;-91
2022/07/25 00:20:08;;;;;;;;;;;;;;;31.16;26.25;99280.22;4421733;32;33703;-91
2022/07/25 00:22:35;;;;;;;;;;;;;;;30.01;27.77;99283.47;4435657;32;34033;-90
2022/07/25 00:25:03;;;;;;;;;;;;;;;30.78;26.64;99276.56;4421831;32;34135;-92
2022/07/25 00:27:30;;;;;;;;;;;;;;;29.65;27.90;99276.00;4415765;32;34117;-92
2022/07/25 00:29:57;;;;;;;;;;;;;;;30.04;27.52;99274.38;4408515;32;34777;-90
2022/07/25 00:32:25;;;;;;;;;;;;;;;30.37;27.08;99270.47;4408474;32;33315;-92
2022/07/25 00:34:52;;;;;;;;;;;;;;;30.18;27.26;99266.34;4422095;32;35183;-86
2022/07/25 00:37:19;;;;;;;;;;;;;;;30.32;27.17;99264.56;4427846;32;34356;-92
2022/07/25 00:39:46;;;;;;;;;;;;;;;29.58;28.08;99277.34;4437877;32;34493;-90
2022/07/25 00:42:14;;;;;;;;;;;;;;;30.42;26.97;99274.56;4437552;32;33631;-91
2022/07/25 00:44:41;;;;;;;;;;;;;;;30.42;26.68;99262.97;4430437;32;34128;-91
2022/07/25 00:47:08;;;;;;;;;;;;;;;30.26;26.94;99268.50;4422134;32;34416;-87
2022/07/25 00:49:35;;;;;;;;;;;;;;;29.81;27.35;99274.09;4422160;32;34939;-91
2022/07/25 00:52:03;;;;;;;;;;;;;;;29.93;27.44;99267.09;4422365;32;33412;-91
2022/07/25 00:54:31;;;;;;;;;;;;;;;30.09;27.24;99276.78;4400167;32;34471;-92
2022/07/25 00:56:58;;;;;;;;;;;;;;;29.37;28.23;99282.22;4410786;32;33870;-90
2022/07/25 00:59:25;;;;;;;;;;;;;;;29.84;27.60;99270.34;4437560;32;34627;-89
2022/07/25 01:01:52;;;;;;;;;;;;;;;29.77;27.51;99269.00;4423682;32;33357;-90
2022/07/25 01:04:20;;;;;;;;;;;;;;;29.54;27.95;99273.12;4420378;32;34138;-87
2022/07/25 01:06:47;;;;;;;;;;;;;;;29.52;27.81;99269.72;4408530;32;34308;-92
2022/07/25 01:09:14;;;;;;;;;;;;;;;29.93;27.36;99271.53;4422039;32;35045;-89
2022/07/25 01:11:42;;;;;;;;;;;;;;;30.34;26.95;99270.66;4412302;32;33536;-90
2022/07/25 01:14:09;;;;;;;;;;;;;;;30.42;26.89;99266.53;4423256;32;33313;-88
2022/07/25 01:16:37;;;;;;;;;;;;;;;30.38;26.80;99262.31;4437503;32;33685;-91
2022/07/25 01:19:06;;;;;;;;;;;;;;;30.74;26.31;99264.34;4423624;32;34098;-92
2022/07/25 01:21:39;;;;;;;;;;;;;;;30.91;26.13;99265.88;4433400;32;33534;-90
2022/07/25 01:24:06;;;;;;;;;;;;;;;31.04;26.00;99265.88;4408190;32;34897;-89
2022/07/25 01:26:34;;;;;;;;;;;;;;;31.30;25.71;99257.81;4421706;32;34340;-91
2022/07/25 01:29:02;;;;;;;;;;;;;;;31.38;25.54;99259.00;4408064;32;35210;-92
2022/07/25 01:31:29;;;;;;;;;;;;;;;31.20;25.66;99265.62;4422628;32;33953;-88
2022/07/25 01:33:56;;;;;;;;;;;;;;;31.30;25.71;99261.37;4408015;32;35046;-91
2022/07/25 01:36:24;;;;;;;;;;;;;;;31.29;25.71;99256.94;4421448;32;34362;-89
2022/07/25 01:38:51;;;;;;;;;;;;;;;31.34;25.68;99262.03;4421999;32;34949;-91
2022/07/25 01:41:20;;;;;;;;;;;;;;;31.25;25.78;99258.12;4422633;32;33192;-91
2022/07/25 01:43:49;;;;;;;;;;;;;;;31.13;25.99;99259.00;4437333;32;34693;-88
2022/07/25 01:46:16;;;;;;;;;;;;;;;31.08;26.03;99250.44;4437183;32;34120;-91
2022/07/25 01:48:43;;;;;;;;;;;;;;;31.17;25.90;99250.62;4398041;32;33499;-90
2022/07/25 01:51:11;;;;;;;;;;;;;;;31.23;25.69;99254.72;4422802;32;33110;-88
2022/07/25 01:53:38;;;;;;;;;;;;;;;31.19;25.80;99247.88;4406589;32;33586;-92
2022/07/25 01:56:07;;;;;;;;;;;;;;;30.97;26.08;99257.41;4417641;32;33850;-92
2022/07/25 01:58:36;;;;;;;;;;;;;;;30.92;26.14;99256.03;4408162;32;33883;-88
2022/07/25 02:01:03;;;;;;;;;;;;;;;30.66;26.47;99242.59;4421801;32;33109;-91
2022/07/25 02:03:32;;;;;;;;;;;;;;;30.93;26.27;99241.66;4435133;32;35151;-90
2022/07/25 02:06:01;;;;;;;;;;;;;;;30.90;26.16;99242.72;4436999;32;34396;-89
2022/07/25 02:08:28;;;;;;;;;;;;;;;30.90;26.15;99252.59;4436856;32;33874;-92
2022/07/25 02:10:56;;;;;;;;;;;;;;;30.72;26.38;99233.25;4423254;32;32606;-88
2022/07/25 02:13:24;;;;;;;;;;;;;;;30.59;26.58;99232.41;4410341;32;33812;-87
2022/07/25 02:15:51;;;;;;;;;;;;;;;30.20;27.14;99242.19;4421564;32;33009;-91
2022/07/25 02:18:19;;;;;;;;;;;;;;;30.19;27.06;99235.09;4395379;32;34118;-92
2022/07/25 02:20:46;;;;;;;;;;;;;;;30.34;26.81;99244.75;4407758;32;33632;-87
2022/07/25 02:23:13;;;;;;;;;;;;;;;30.31;26.93;99239.66;4432219;32;34209;-90
2022/07/25 02:25:41;;;;;;;;;;;;;;;30.44;26.58;99240.50;4422795;32;35345;-91
2022/07/25 02:28:08;;;;;;;;;;;;;;;30.41;26.87;99238.03;4421927;32;34311;-89
2022/07/25 02:30:36;;;;;;;;;;;;;;;30.23;26.89;99237.50;4427138;32;33400;-92
2022/07/25 02:33:04;;;;;;;;;;;;;;;30.36;26.79;99240.19;4436820;32;35100;-88
2022/07/25 02:35:31;;;;;;;;;;;;;;;29.80;27.25;99244.78;4423279;32;35143;-92
2022/07/25 02:37:59;;;;;;;;;;;;;;;30.08;27.08;99246.50;4410176;32;32758;-90
2022/07/25 02:40:26;;;;;;;;;;;;;;;30.42;26.62;99242.47;4431645;32;34103;-92
2022/07/25 02:42:53;;;;;;;;;;;;;;;29.56;27.82;99237.34;4421387;32;34054;-91
2022/07/25 02:45:20;;;;;;;;;;;;;;;29.96;27.27;99240.13;4421413;32;34515;-92
2022/07/25 02:47:48;;;;;;;;;;;;;;;30.22;26.89;99238.44;4420320;32;33685;-91
2022/07/25 02:50:15;;;;;;;;;;;;;;;30.40;26.65;99239.00;4406810;32;33415;-88
2022/07/25 02:52:42;;;;;;;;;;;;;;;30.38;26.65;99235.56;4421220;32;34898;-91
2022/07/25 02:55:10;;;;;;;;;;;;;;;30.51;26.53;99246.31;4421315;32;34146;-91
2022/07/25 02:57:37;;;;;;;;;;;;;;;30.48;26.54;99250.03;4418477;32;34417;-88
2022/07/25 03:00:05;;;;;;;;;;;;;;;30.59;26.31;99251.16;4422176;32;33720;-90
2022/07/25 03:02:33;;;;;;;;;;;;;;;30.47;26.57;99251.00;4436402;32;34441;-91
2022/07/25 03:05:00;;;;;;;;;;;;;;;30.43;26.69;99252.19;4422615;32;35118;-92
2022/07/25 03:07:27;;;;;;;;;;;;;;;30.41;26.72;99254.09;4418988;32;34428;-88
2022/07/25 03:09:55;;;;;;;;;;;;;;;30.38;26.73;99248.94;4407535;32;33766;-91
2022/07/25 03:12:22;;;;;;;;;;;;;;;30.28;26.90;99251.41;4421150;32;34998;-92
2022/07/25 03:14:50;;;;;;;;;;;;;;;30.23;26.93;99252.66;4422046;32;35059;-89
2022/07/25 03:17:17;;;;;;;;;;;;;;;30.30;26.90;99251.28;4394796;32;34470;-91
2022/07/25 03:19:44;;;;;;;;;;;;;;;29.97;27.24;99257.91;4421134;32;33989;-88
2022/07/25 03:22:12;;;;;;;;;;;;;;;30.06;27.20;99261.78;4421003;32;35117;-86
2022/07/25 03:24:39;;;;;;;;;;;;;;;29.83;27.54;99254.41;4424322;32;35137;-91
2022/07/25 03:27:06;;;;;;;;;;;;;;;30.02;27.30;99271.81;4436148;32;34531;-93
2022/07/25 03:29:33;;;;;;;;;;;;;;;29.88;27.53;99266.50;4434888;32;33511;-93
2022/07/25 03:32:01;;;;;;;;;;;;;;;29.72;27.74;99263.13;4422205;32;34949;-92
2022/07/25 03:34:28;;;;;;;;;;;;;;;29.63;27.86;99266.41;4420896;32;35264;-92
2022/07/25 03:36:55;;;;;;;;;;;;;;;29.65;27.88;99256.44;4406710;32;32931;-92
2022/07/25 03:39:23;;;;;;;;;;;;;;;29.65;27.87;99259.13;4420915;32;33341;-94
2022/07/25 03:41:51;;;;;;;;;;;;;;;29.74;27.80;99266.56;4432886;32;34275;-89
2022/07/25 03:44:19;;;;;;;;;;;;;;;29.78;27.70;99268.09;4436162;32;34578;-92
2022/07/25 03:46:46;;;;;;;;;;;;;;;29.89;27.56;99267.34;4436090;32;33967;-92
2022/07/25 03:49:13;;;;;;;;;;;;;;;29.93;27.50;99269.75;4436382;32;33095;-92
2022/07/25 03:51:41;;;;;;;;;;;;;;;29.84;27.68;99262.31;4410862;32;35027;-92
2022/07/25 03:54:12;;;;;;;;;;;;;;;30.01;27.49;99270.09;4420882;32;34402;-91
2022/07/25 03:56:40;;;;;;;;;;;;;;;29.84;27.74;99261.47;4420541;32;34391;-92
2022/07/25 03:59:11;;;;;;;;;;;;;;;30.04;27.55;99264.56;4407251;32;33467;-91
2022/07/25 04:01:40;;;;;;;;;;;;;;;30.09;27.57;99261.59;4418744;32;34272;-92
2022/07/25 04:04:08;;;;;;;;;;;;;;;30.26;27.62;99255.97;4423724;32;34168;-93
2022/07/25 04:06:36;;;;;;;;;;;;;;;29.99;27.49;99263.13;4437882;32;35178;-91
2022/07/25 04:09:03;;;;;;;;;;;;;;;30.06;27.65;99259.97;4415470;32;32087;-92
2022/07/25 04:11:31;;;;;;;;;;;;;;;30.11;27.14;99269.50;4408707;32;33968;-92
2022/07/25 04:13:58;;;;;;;;;;;;;;;30.19;27.76;99265.41;4408492;32;33824;-93
2022/07/25 04:16:25;;;;;;;;;;;;;;;29.94;27.69;99276.81;4422182;32;34575;-90
2022/07/25 04:18:54;;;;;;;;;;;;;;;30.04;27.98;99274.38;4429039;32;33795;-90
2022/07/25 04:21:23;;;;;;;;;;;;;;;30.70;26.57;99272.66;4437783;32;34185;-90
2022/07/25 04:23:50;;;;;;;;;;;;;;;31.19;25.93;99280.00;4423519;32;34474;-91
2022/07/25 04:26:18;;;;;;;;;;;;;;;30.32;27.36;99269.91;4437524;32;34710;-90
2022/07/25 04:28:45;;;;;;;;;;;;;;;31.70;25.94;99277.25;4418083;32;33240;-90
2022/07/25 04:31:13;;;;;;;;;;;;;;;31.49;25.89;99277.84;4422268;32;33608;-92
2022/07/25 04:33:41;;;;;;;;;;;;;;;31.08;26.41;99277.22;4408501;32;33986;-91
2022/07/25 04:36:08;;;;;;;;;;;;;;;31.95;25.60;99279.03;4408398;32;35391;-90
2022/07/25 04:38:36;;;;;;;;;;;;;;;32.17;25.35;99272.94;4426681;32;34266;-90
2022/07/25 04:41:03;;;;;;;;;;;;;;;32.04;25.34;99283.72;4423485;32;35034;-87
2022/07/25 04:43:30;;;;;;;;;;;;;;;33.25;22.83;99265.56;4423483;32;34310;-90
2022/07/25 04:45:58;;;;;;;;;;;;;;;33.32;23.43;99274.84;4437679;32;35345;-90
2022/07/25 04:48:26;;;;;;;;;;;;;;;33.58;23.22;99268.28;4433895;32;33796;-90
2022/07/25 04:50:54;;;;;;;;;;;;;;;34.02;22.58;99268.31;4408642;32;33922;-90
2022/07/25 04:53:21;;;;;;;;;;;;;;;33.70;22.92;99269.09;4396092;32;34040;-91
2022/07/25 04:55:49;;;;;;;;;;;;;;;34.05;22.48;99274.31;4413071;32;34612;-90
2022/07/25 04:58:16;;;;;;;;;;;;;;;34.37;22.05;99270.78;4437327;32;33579;-90
2022/07/25 05:00:43;;;;;;;;;;;;;;;34.34;22.10;99277.25;4422199;32;34969;-89
2022/07/25 05:03:11;;;;;;;;;;;;;;;33.99;22.26;99271.28;4423334;32;34959;-91
2022/07/25 05:05:38;;;;;;;;;;;;;;;33.64;23.08;99277.66;4433356;32;34501;-90
2022/07/25 05:08:05;;;;;;;;;;;;;;;34.60;22.19;99277.78;4408122;32;34381;-90
2022/07/25 05:10:33;;;;;;;;;;;;;;;34.29;22.50;99279.50;4421781;32;33929;-88
2022/07/25 05:13:00;;;;;;;;;;;;;;;34.99;21.29;99271.78;4407895;32;34410;-90
2022/07/25 05:15:27;;;;;;;;;;;;;;;34.91;21.76;99271.59;4423682;32;34158;-91
2022/07/25 05:17:56;;;;;;;;;;;;;;;34.78;22.02;99274.50;4437088;32;33765;-89
2022/07/25 05:20:23;;;;;;;;;;;;;;;34.02;22.69;99279.06;4437522;32;33851;-90
2022/07/25 05:22:50;;;;;;;;;;;;;;;34.79;21.58;99266.28;4423403;32;33916;-90
2022/07/25 05:25:18;;;;;;;;;;;;;;;33.87;23.12;99278.50;4435492;32;34421;-90
2022/07/25 05:27:46;;;;;;;;;;;;;;;34.66;22.03;99276.37;4421707;32;34376;-89
2022/07/25 05:30:14;;;;;;;;;;;;;;;34.31;22.73;99272.13;4421763;32;35014;-90
2022/07/25 05:32:41;;;;;;;;;;;;;;;34.37;22.40;99271.63;4407950;32;34320;-87
2022/07/25 05:35:09;;;;;;;;;;;;;;;34.09;23.08;99280.28;4407640;32;32865;-89
2022/07/25 05:37:36;;;;;;;;;;;;;;;35.51;21.48;99272.66;4423218;32;34058;-90
2022/07/25 05:40:04;;;;;;;;;;;;;;;33.95;22.91;99267.97;4437079;32;34569;-89
2022/07/25 05:42:31;;;;;;;;;;;;;;;34.64;22.10;99273.00;4423103;32;34385;-90
2022/07/25 05:44:59;;;;;;;;;;;;;;;35.27;21.45;99265.75;4437020;32;34272;-90
2022/07/25 05:47:26;;;;;;;;;;;;;;;34.77;21.95;99262.00;4408408;32;33385;-91
2022/07/25 05:49:53;;;;;;;;;;;;;;;33.47;22.43;99262.91;4421809;32;34258;-89
2022/07/25 05:52:21;;;;;;;;;;;;;;;32.38;23.95;99260.56;4422098;32;34467;-88
2022/07/25 05:54:49;;;;;;;;;;;;;;;32.36;24.58;99261.69;4421478;32;34408;-89
2022/07/25 05:57:16;;;;;;;;;;;;;;;33.21;23.53;99262.25;4412859;32;33344;-88
2022/07/25 05:59:43;;;;;;;;;;;;;;;32.04;25.44;99278.34;4421515;32;35272;-87
2022/07/25 06:02:10;;;;;;;;;;;;;;;33.32;22.87;99272.16;4421464;32;34524;-88
2022/07/25 06:04:38;;;;;;;;;;;;;;;33.29;22.73;99264.34;4407647;32;33515;-88
2022/07/25 06:07:05;;;;;;;;;;;;;;;32.18;24.38;99270.13;4411865;32;34423;-89
2022/07/25 06:09:34;;;;;;;;;;;;;;;32.69;24.09;99264.50;4423153;32;34020;-87
2022/07/25 06:12:01;;;;;;;;;;;;;;;32.58;23.85;99260.91;4437006;32;33844;-89
2022/07/25 06:14:30;;;;;;;;;;;;;;;31.38;25.12;99272.41;4423240;32;35248;-89
2022/07/25 06:16:57;;;;;;;;;;;;;;;31.96;24.32;99280.75;4432986;32;33364;-87
2022/07/25 06:19:25;;;;;;;;;;;;;;;30.04;26.96;99275.25;4407713;32;34298;-87
2022/07/25 06:21:52;;;;;;;;;;;;;;;31.52;24.87;99267.88;4421903;32;35120;-90
2022/07/25 06:24:19;;;;;;;;;;;;;;;30.81;26.14;99264.78;4421366;32;33745;-86
2022/07/25 06:26:47;;;;;;;;;;;;;;;32.13;24.87;99266.09;4409665;32;32923;-89
2022/07/25 06:29:14;;;;;;;;;;;;;;;30.60;26.38;99258.19;4436960;32;34136;-89
2022/07/25 06:31:41;;;;;;;;;;;;;;;30.88;25.83;99263.41;4422590;32;32512;-86
2022/07/25 06:34:13;;;;;;;;;;;;;;;31.23;25.52;99271.63;4436839;32;34157;-90
2022/07/25 06:36:40;;;;;;;;;;;;;;;30.69;26.25;99255.75;4435050;32;33286;-91
2022/07/25 06:39:08;;;;;;;;;;;;;;;30.98;25.79;99267.13;4421393;32;34185;-86
2022/07/25 06:41:36;;;;;;;;;;;;;;;30.34;26.28;99259.97;4407656;32;34306;-88
2022/07/25 06:44:03;;;;;;;;;;;;;;;30.89;25.82;99258.91;4421372;32;35105;-87
2022/07/25 06:46:31;;;;;;;;;;;;;;;31.23;25.27;99257.41;4407604;32;33496;-87
2022/07/25 06:48:59;;;;;;;;;;;;;;;31.50;25.23;99252.75;4436971;32;33963;-87
2022/07/25 06:51:26;;;;;;;;;;;;;;;31.70;24.50;99253.97;4437045;32;34493;-88
2022/07/25 06:53:54;;;;;;;;;;;;;;;31.57;24.94;99253.19;4436353;32;35285;-88
2022/07/25 06:56:21;;;;;;;;;;;;;;;31.31;25.67;99249.69;4436621;32;34319;-86
2022/07/25 06:58:48;;;;;;;;;;;;;;;31.60;25.26;99250.28;4421840;32;34544;-88
2022/07/25 07:01:16;;;;;;;;;;;;;;;31.61;25.72;99248.47;4407262;32;34787;-88
2022/07/25 07:03:43;;;;;;;;;;;;;;;32.22;24.65;99238.56;4421261;32;34196;-87
2022/07/25 07:06:11;;;;;;;;;;;;;;;32.73;23.54;99235.56;4422978;32;33766;-86
2022/07/25 07:08:38;;;;;;;;;;;;;;;32.25;24.54;99238.34;4421843;32;34051;-88
2022/07/25 07:11:06;;;;;;;;;;;;;;;31.17;26.07;99239.06;4436874;32;35303;-89
2022/07/25 07:13:33;;;;;;;;;;;;;;;32.45;23.89;99229.66;4436666;32;34757;-87
2022/07/25 07:16:00;;;;;;;;;;;;;;;31.96;24.25;99241.38;4421142;32;34924;-86
2022/07/25 07:18:28;;;;;;;;;;;;;;;31.01;25.38;99242.84;4436620;32;35172;-89
2022/07/25 07:20:55;;;;;;;;;;;;;;;31.68;25.07;99239.00;4436618;32;34406;-88
2022/07/25 07:23:22;;;;;;;;;;;;;;;30.85;25.66;99239.53;4436268;32;33864;-89
2022/07/25 07:25:50;;;;;;;;;;;;;;;32.12;24.53;99237.53;4423389;32;34366;-87
2022/07/25 07:28:18;;;;;;;;;;;;;;;32.62;24.08;99235.56;4421330;32;34302;-88
2022/07/25 07:30:45;;;;;;;;;;;;;;;31.86;25.37;99244.84;4420603;32;35260;-86
2022/07/25 07:33:33;;;;;;;;;;;;;;;33.17;23.55;99236.63;4409516;32;34465;-87
2022/07/25 07:36:00;;;;;;;;;;;;;;;33.51;22.52;99231.25;4403843;32;34562;-86
2022/07/25 07:38:27;;;;;;;;;;;;;;;33.69;22.37;99228.91;4391986;32;33143;-87
2022/07/25 07:40:56;;;;;;;;;;;;;;;32.38;23.74;99233.75;4419934;32;34240;-87
2022/07/25 07:43:23;;;;;;;;;;;;;;;32.56;23.77;99234.19;4420527;32;34955;-87
2022/07/25 07:45:59;;;;;;;;;;;;;;;31.89;24.11;99242.78;4418825;32;34335;-84
2022/07/25 07:48:27;;;;;;;;;;;;;;;31.36;25.16;99244.00;4419520;32;34379;-87
2022/07/25 07:50:55;;;;;;;;;;;;;;;32.82;23.64;99234.00;4433417;32;34417;-87
2022/07/25 07:55:42;;;;;;;;;;;;;;;32.66;23.51;99232.53;4433851;32;35106;-83
2022/07/25 07:56:10;;;;;;;;;;;;;;;33.11;22.73;99226.34;4424456;32;33333;-83
2022/07/25 07:58:38;;;;;;;;;;;;;;;33.36;23.10;99238.69;4418799;32;35180;-82
2022/07/25 08:01:06;;;;;;;;;;;;;;;32.90;23.10;99234.25;4425061;32;35256;-83
2022/07/25 08:03:33;;;;;;;;;;;;;;;33.30;22.95;99233.81;4425155;32;34256;-86
2022/07/25 08:06:00;;;;;;;;;;;;;;;34.13;21.84;99227.94;4421284;32;33544;-86
2022/07/25 08:08:27;;;;;;;;;;;;;;;32.20;24.00;99225.28;4412745;32;34276;-86
2022/07/25 08:10:58;;;;;;;;;;;;;;;33.71;21.75;99224.25;4426507;32;34546;-86
2022/07/25 08:13:27;;;;;;;;;;;;;;;34.14;21.75;99222.44;4420203;32;34803;-85
2022/07/25 08:15:57;;;;;;;;;;;;;;;34.43;21.74;99223.63;4406701;32;33515;-86
2022/07/25 08:18:25;;;;;;;;;;;;;;;33.61;22.03;99227.69;4420345;32;35030;-87
2022/07/25 08:20:53;;;;;;;;;;;;;;;31.66;24.59;99227.53;4420027;32;34899;-87
2022/07/25 08:23:21;;;;;;;;;;;;;;;33.26;22.99;99225.13;4420097;32;34474;-86
2022/07/25 08:25:48;;;;;;;;;;;;;;;34.24;21.60;99225.19;4420328;32;33439;-86
2022/07/25 08:28:16;;;;;;;;;;;;;;;34.75;20.64;99216.37;4420429;32;34310;-86
2022/07/25 08:30:43;;;;;;;;;;;;;;;35.36;20.48;99215.53;4405774;32;34727;-86
2022/07/25 08:33:20;;;;;;;;;;;;;;;35.27;20.65;99211.81;4420158;32;34513;-84
2022/07/25 08:35:52;;;;;;;;;;;;;;;34.18;21.65;99206.03;4420585;32;33286;-87
2022/07/25 08:38:20;;;;;;;;;;;;;;;34.07;21.89;99205.09;4391426;32;33797;-85
2022/07/25 08:40:47;;;;;;;;;;;;;;;34.31;21.53;99207.53;4404934;32;34458;-86
2022/07/25 08:43:15;;;;;;;;;;;;;;;34.66;21.03;99210.91;4404701;32;33845;-86
2022/07/25 08:45:43;;;;;;;;;;;;;;;34.55;21.23;99206.44;4398361;32;33290;-86
2022/07/25 08:48:10;;;;;;;;;;;;;;;34.51;21.10;99205.00;4423073;32;34009;-86
2022/07/25 08:50:38;;;;;;;;;;;;;;;35.09;22.10;99202.69;4437249;32;35385;-87
2022/07/25 08:53:05;;;;;;;;;;;;;;;33.31;22.26;99201.44;4437468;32;35079;-85
2022/07/25 08:55:52;;;;;;;;;;;;;;;33.80;22.21;99205.53;4432543;32;33772;-86
2022/07/25 08:58:20;;;;;;;;;;;;;;;34.10;21.57;99191.38;4408169;32;35060;-87
2022/07/25 09:00:47;;;;;;;;;;;;;;;33.26;22.85;99198.25;4422103;32;34383;-87
2022/07/25 09:03:14;;;;;;;;;;;;;;;34.41;21.82;99198.69;4421951;32;34337;-85
2022/07/25 09:05:44;;;;;;;;;;;;;;;33.73;22.45;99190.03;4422531;32;34408;-84
2022/07/25 09:08:12;;;;;;;;;;;;;;;33.77;22.14;99191.50;4421885;32;34979;-86
2022/07/25 09:10:44;;;;;;;;;;;;;;;34.40;21.46;99181.69;4421860;32;34062;-86
2022/07/25 09:13:13;;;;;;;;;;;;;;;33.98;21.90;99175.38;4407949;32;35063;-91
2022/07/25 09:15:47;;;;;;;;;;;;;;;33.03;22.79;99185.81;4410856;32;33175;-86
2022/07/25 09:18:16;;;;;;;;;;;;;;;32.56;23.49;99183.19;4423444;32;34116;-86
2022/07/25 09:20:45;;;;;;;;;;;;;;;32.34;24.30;99185.81;4422991;32;32680;-86
2022/07/25 09:23:35;;;;;;;;;;;;;;;33.03;23.22;99175.94;4437062;32;34587;-85
2022/07/25 09:26:05;;;;;;;;;;;;;;;32.36;24.07;99181.19;4424523;32;33432;-86
2022/07/25 09:28:39;;;;;;;;;;;;;;;33.63;22.83;99171.09;4421783;32;34137;-86
2022/07/25 09:31:08;;;;;;;;;;;;;;;34.06;21.82;99175.66;4407954;32;34243;-86
2022/07/25 09:33:50;;;;;;;;;;;;;;;34.71;20.96;99171.84;4414650;32;34525;-84
2022/07/25 09:36:18;;;;;;;;;;;;;;;34.61;21.61;99174.47;4437231;32;33476;-86
2022/07/25 09:38:54;;;;;;;;;;;;;;;34.65;21.23;99176.91;4437220;32;35139;-86
2022/07/25 09:41:32;;;;;;;;;;;;;;;34.95;20.86;99158.06;4423464;32;35117;-87
2022/07/25 09:43:59;;;;;;;;;;;;;;;35.36;20.54;99164.31;4413829;32;35192;-85
2022/07/25 09:46:30;;;;;;;;;;;;;;;35.66;19.68;99158.03;4406070;32;34319;-86
2022/07/25 09:48:58;;;;;;;;;;;;;;;34.89;20.38;99163.97;4421613;32;34197;-86
2022/07/25 09:51:25;;;;;;;;;;;;;;;34.94;20.49;99159.06;4421852;32;34127;-88
2022/07/25 09:53:53;;;;;;;;;;;;;;;33.60;22.04;99157.91;4422446;32;34547;-86
2022/07/25 09:56:20;;;;;;;;;;;;;;;34.22;21.47;99148.28;4437169;32;33487;-90
2022/07/25 09:58:47;;;;;;;;;;;;;;;34.74;20.37;99144.66;4436680;32;35074;-86
2022/07/25 10:01:19;;;;;;;;;;;;;;;35.27;20.03;99139.06;4426514;32;33951;-88
2022/07/25 10:03:48;;;;;;;;;;;;;;;35.24;19.87;99142.03;4407975;32;34085;-88
2022/07/25 10:06:19;;;;;;;;;;;;;;;35.94;19.44;99136.56;4407854;32;33656;-85
2022/07/25 10:08:47;;;;;;;;;;;;;;;35.42;19.11;99138.63;4407614;32;34055;-87
2022/07/25 10:11:21;;;;;;;;;;;;;;;35.50;19.16;99130.75;4429868;32;34954;-84
2022/07/25 10:13:49;;;;;;;;;;;;;;;34.58;20.41;99138.88;4436603;32;34313;-84
2022/07/25 10:16:17;;;;;;;;;;;;;;;34.47;20.35;99130.84;4422974;32;34519;-86
2022/07/25 10:18:48;;;;;;;;;;;;;;;35.21;19.92;99120.72;4418700;32;34356;-85
2022/07/25 10:21:16;;;;;;;;;;;;;;;35.64;19.07;99116.84;4411471;32;34296;-83
2022/07/25 10:23:59;;;;;;;;;;;;;;;35.67;20.02;99118.41;4408680;32;34449;-86
2022/07/25 10:26:26;;;;;;;;;;;;;;;35.98;19.16;99113.72;4412238;32;33874;-84
2022/07/25 10:28:55;;;;;;;;;;;;;;;35.70;19.23;99118.13;4432660;32;33974;-87
2022/07/25 10:31:26;;;;;;;;;;;;;;;36.16;19.05;99101.22;4423225;32;33624;-85
2022/07/25 10:33:55;;;;;;;;;;;;;;;36.85;18.07;99102.72;4431657;32;34000;-86
2022/07/25 10:36:24;;;;;;;;;;;;;;;34.88;20.09;99112.94;4409548;32;31809;-84
2022/07/25 10:38:52;;;;;;;;;;;;;;;35.69;19.34;99098.41;4410802;32;33866;-87
2022/07/25 10:41:22;;;;;;;;;;;;;;;36.64;17.94;99097.56;4421306;32;34222;-86
2022/07/25 10:43:49;;;;;;;;;;;;;;;36.26;18.05;99098.50;4407566;32;33885;-87
2022/07/25 10:46:17;;;;;;;;;;;;;;;35.64;18.89;99097.97;4393908;32;32507;-85
2022/07/25 10:48:55;;;;;;;;;;;;;;;35.20;19.75;99097.47;4420085;32;34194;-86
2022/07/25 10:51:25;;;;;;;;;;;;;;;35.28;19.49;99084.16;4407673;32;34148;-85
2022/07/25 10:53:53;;;;;;;;;;;;;;;36.00;18.93;99082.09;4407647;32;34126;-86
2022/07/25 10:56:25;;;;;;;;;;;;;;;34.69;19.31;99082.25;4396304;32;33658;-85
2022/07/25 10:58:56;;;;;;;;;;;;;;;34.30;19.64;99087.44;4405793;32;34907;-85
2022/07/25 11:01:25;;;;;;;;;;;;;;;35.14;18.67;99076.47;4417203;32;34259;-85
2022/07/25 11:03:53;;;;;;;;;;;;;;;34.87;19.39;99082.47;4417139;32;34993;-85
2022/07/25 11:06:37;;;;;;;;;;;;;;;34.54;19.58;99075.53;4410183;32;34160;-87
2022/07/25 11:09:24;;;;;;;;;;;;;;;35.31;18.69;99058.78;4420065;32;34239;-83
2022/07/25 11:11:54;;;;;;;;;;;;;;;34.74;18.40;99063.87;4407661;32;34527;-85
2022/07/25 11:14:23;;;;;;;;;;;;;;;35.64;17.80;99062.91;4410440;32;34595;-86
2022/07/25 11:16:51;;;;;;;;;;;;;;;34.89;18.42;99066.16;4417148;32;33716;-85
2022/07/25 11:19:23;;;;;;;;;;;;;;;35.90;17.15;99048.84;4417333;32;34780;-84
2022/07/25 11:21:54;;;;;;;;;;;;;;;35.76;16.94;99051.00;4405978;32;34128;-87
2022/07/25 11:24:32;;;;;;;;;;;;;;;35.59;16.80;99049.00;4415271;32;33846;-86
2022/07/25 11:26:59;;;;;;;;;;;;;;;35.66;17.25;99039.34;4407318;32;33355;-86
2022/07/25 11:29:27;;;;;;;;;;;;;;;35.12;17.88;99035.34;4420984;32;34889;-86
2022/07/25 11:32:04;;;;;;;;;;;;;;;35.51;17.50;99030.00;4421266;32;34487;-86
2022/07/25 11:34:33;;;;;;;;;;;;;;;36.37;16.22;99035.38;4401892;32;35225;-86
2022/07/25 11:37:02;;;;;;;;;;;;;;;36.34;16.55;99025.75;4406492;32;33721;-85
2022/07/25 11:39:30;;;;;;;;;;;;;;;36.43;16.43;99029.38;4416899;32;34298;-85
2022/07/25 11:42:05;;;;;;;;;;;;;;;36.60;16.05;99020.53;4398266;32;32794;-87
2022/07/25 11:44:33;;;;;;;;;;;;;;;37.49;15.88;99014.44;4401571;32;34146;-86
2022/07/25 11:47:01;;;;;;;;;;;;;;;36.75;16.45;99007.38;4406998;32;33529;-86
2022/07/25 11:49:29;;;;;;;;;;;;;;;36.94;16.82;99010.00;4430615;32;34954;-84
2022/07/25 11:51:56;;;;;;;;;;;;;;;36.13;17.56;99009.75;4411183;32;34275;-87
2022/07/25 11:54:24;;;;;;;;;;;;;;;36.43;17.35;99005.09;4423487;32;34444;-82
2022/07/25 11:56:51;;;;;;;;;;;;;;;36.43;17.29;99014.03;4433398;32;33641;-84
2022/07/25 11:59:18;;;;;;;;;;;;;;;37.07;16.38;99001.50;4409660;32;788946;-83
2022/07/25 12:01:46;;;;;;;;;;;;;;;37.24;15.95;98995.25;4420827;32;34475;-84
2022/07/25 12:04:15;;;;;;;;;;;;;;;37.48;16.12;98991.09;4405821;32;33246;-85
2022/07/25 12:06:44;;;;;;;;;;;;;;;36.92;16.27;98984.94;4415810;32;33271;-86
2022/07/25 12:09:15;;;;;;;;;;;;;;;37.06;16.46;98985.44;4419398;32;33724;-84
2022/07/25 12:11:46;;;;;;;;;;;;;;;37.09;15.73;98988.69;4414261;32;33361;-84
2022/07/25 12:14:13;;;;;;;;;;;;;;;37.46;15.22;98976.88;4406733;32;35241;-86
2022/07/25 12:16:41;;;;;;;;;;;;;;;35.70;16.61;98976.03;4423350;32;33676;-84
2022/07/25 12:19:12;;;;;;;;;;;;;;;34.89;17.08;98975.41;4420500;32;33707;-86
2022/07/25 12:21:39;;;;;;;;;;;;;;;36.26;16.65;98972.50;4415807;32;34116;-86
2022/07/25 12:24:06;;;;;;;;;;;;;;;35.94;16.26;98961.22;4422690;32;35376;-85
2022/07/25 12:26:33;;;;;;;;;;;;;;;36.59;16.27;98956.69;4417017;32;34214;-87
2022/07/25 12:29:01;;;;;;;;;;;;;;;36.24;16.47;98960.97;4422125;32;34377;-85
2022/07/25 12:31:28;;;;;;;;;;;;;;;36.53;15.84;98949.22;4406943;32;35317;-85
2022/07/25 12:33:56;;;;;;;;;;;;;;;36.97;15.62;98944.81;4394327;32;34475;-86
2022/07/25 12:36:23;;;;;;;;;;;;;;;37.23;15.52;98949.44;4425607;32;33803;-87
2022/07/25 12:38:50;;;;;;;;;;;;;;;36.36;16.59;98949.97;4407720;32;34382;-86
2022/07/25 12:41:21;;;;;;;;;;;;;;;37.21;14.99;98940.66;4421879;32;33824;-86
2022/07/25 12:43:48;;;;;;;;;;;;;;;37.42;15.18;98943.88;4431787;32;35207;-88
2022/07/25 12:46:15;;;;;;;;;;;;;;;35.78;16.17;98932.16;4407819;32;33508;-86
2022/07/25 12:48:43;;;;;;;;;;;;;;;36.71;15.51;98928.50;4423105;32;33849;-87
2022/07/25 12:51:11;;;;;;;;;;;;;;;35.16;16.77;98926.28;4415582;32;34061;-87
2022/07/25 12:53:38;;;;;;;;;;;;;;;36.21;16.53;98920.78;4408127;32;34398;-86